Terminal Aerodrome Forecast
Issued by NWS

Home | Current Version | Previous Version | Graphics & Text | Print | Product List | Glossary On
Versions: 1 2 3 4 5 6 7 8 9 10 11 12 13 14 15 16 17 18
910
FTUS43 KICT 251720
TAFSLN
TAF
KSLN 251720Z 2518/2618 18014G21KT P6SM FEW060 FEW250
     FM260200 16012KT P6SM FEW200
     FM261600 21016G23KT P6SM SCT200=

USA.gov is the U.S. government's official web portal to all federal, state and local government web resources and services.